Powell Butte, Oregon
Current Conditions -  °F | °C
As of 2:55 AM on Friday 31 Oct 2014 (Local Time) from KS39 Reporting Station
Broken Clouds Broken Clouds  
Wind Chill: 46°   Ceiling: 10000
Heat Index: 48°   Visibility: 10mi
Dew Point: 46°   Wind: 5mph
Humidity: 93%   Direction: 280°W
Pressure: 29.8"   Gusts: NA
Location:  44.25°N, 121.02°W
Report Text: KS39 310955Z AUTO 28004KT 10SM BKN100 BKN120 09/08 A2980 RMK AO2
Loading
Personal Weather Stations






























Interactive Weather Map
Tropical Storm Tracking
New forecast layout! Learn more

10-Day Weather Forecast

Advertisements
Track Severe Weather on mobile